sensor_id;sensor_type;location;lat;lon;timestamp;P1;durP1;ratioP1;P2;durP2;ratioP2
17596;SDS011;8917;50.942;6.946;2022-08-05T00:02:10;4.90;;;2.80;;
17596;SDS011;8917;50.942;6.946;2022-08-05T00:04:40;4.90;;;2.97;;
17596;SDS011;8917;50.942;6.946;2022-08-05T00:07:07;5.22;;;3.17;;
17596;SDS011;8917;50.942;6.946;2022-08-05T00:09:34;4.47;;;3.10;;
17596;SDS011;8917;50.942;6.946;2022-08-05T00:12:01;4.60;;;3.28;;
17596;SDS011;8917;50.942;6.946;2022-08-05T00:14:29;5.45;;;2.95;;
17596;SDS011;8917;50.942;6.946;2022-08-05T00:16:56;3.30;;;2.75;;
17596;SDS011;8917;50.942;6.946;2022-08-05T00:19:23;5.88;;;2.75;;
17596;SDS011;8917;50.942;6.946;2022-08-05T00:21:52;6.95;;;3.00;;
17596;SDS011;8917;50.942;6.946;2022-08-05T00:24:20;5.55;;;3.00;;
17596;SDS011;8917;50.942;6.946;2022-08-05T00:26:47;5.55;;;2.97;;
17596;SDS011;8917;50.942;6.946;2022-08-05T00:29:14;5.80;;;3.13;;
17596;SDS011;8917;50.942;6.946;2022-08-05T00:31:41;7.53;;;2.85;;
17596;SDS011;8917;50.942;6.946;2022-08-05T00:34:08;3.33;;;2.75;;
17596;SDS011;8917;50.942;6.946;2022-08-05T00:36:36;3.80;;;3.10;;
17596;SDS011;8917;50.942;6.946;2022-08-05T00:39:04;5.15;;;2.90;;
17596;SDS011;8917;50.942;6.946;2022-08-05T00:41:33;5.03;;;3.40;;
17596;SDS011;8917;50.942;6.946;2022-08-05T00:44:01;4.28;;;3.40;;
17596;SDS011;8917;50.942;6.946;2022-08-05T00:46:28;5.93;;;3.03;;
17596;SDS011;8917;50.942;6.946;2022-08-05T00:48:56;6.47;;;3.40;;
17596;SDS011;8917;50.942;6.946;2022-08-05T00:51:23;6.57;;;3.70;;
17596;SDS011;8917;50.942;6.946;2022-08-05T00:53:50;6.13;;;3.38;;
17596;SDS011;8917;50.942;6.946;2022-08-05T00:56:21;4.38;;;3.22;;
17596;SDS011;8917;50.942;6.946;2022-08-05T00:58:48;5.50;;;3.35;;
17596;SDS011;8917;50.942;6.946;2022-08-05T01:01:15;5.90;;;3.42;;
17596;SDS011;8917;50.942;6.946;2022-08-05T01:03:42;4.10;;;3.30;;
17596;SDS011;8917;50.942;6.946;2022-08-05T01:06:10;8.40;;;3.78;;
17596;SDS011;8917;50.942;6.946;2022-08-05T01:08:37;4.03;;;2.97;;
17596;SDS011;8917;50.942;6.946;2022-08-05T01:11:06;5.53;;;3.30;;
17596;SDS011;8917;50.942;6.946;2022-08-05T01:13:38;5.22;;;3.20;;
17596;SDS011;8917;50.942;6.946;2022-08-05T01:16:07;4.18;;;3.05;;
17596;SDS011;8917;50.942;6.946;2022-08-05T01:18:36;4.97;;;3.05;;
17596;SDS011;8917;50.942;6.946;2022-08-05T01:21:09;6.30;;;3.42;;
17596;SDS011;8917;50.942;6.946;2022-08-05T01:23:43;3.97;;;2.60;;
17596;SDS011;8917;50.942;6.946;2022-08-05T01:26:18;4.07;;;2.85;;
17596;SDS011;8917;50.942;6.946;2022-08-05T01:28:50;7.43;;;3.13;;
17596;SDS011;8917;50.942;6.946;2022-08-05T01:31:22;5.45;;;3.20;;
17596;SDS011;8917;50.942;6.946;2022-08-05T01:33:53;6.20;;;3.63;;
17596;SDS011;8917;50.942;6.946;2022-08-05T01:36:24;5.65;;;2.75;;
17596;SDS011;8917;50.942;6.946;2022-08-05T01:38:52;3.65;;;2.90;;
17596;SDS011;8917;50.942;6.946;2022-08-05T01:41:21;3.33;;;2.53;;
17596;SDS011;8917;50.942;6.946;2022-08-05T01:43:51;3.53;;;2.75;;
17596;SDS011;8917;50.942;6.946;2022-08-05T01:46:19;3.83;;;2.88;;
17596;SDS011;8917;50.942;6.946;2022-08-05T01:48:47;4.78;;;2.80;;
17596;SDS011;8917;50.942;6.946;2022-08-05T01:51:16;4.65;;;2.90;;
17596;SDS011;8917;50.942;6.946;2022-08-05T01:53:44;3.75;;;2.97;;
17596;SDS011;8917;50.942;6.946;2022-08-05T01:56:12;4.20;;;2.95;;
17596;SDS011;8917;50.942;6.946;2022-08-05T01:58:40;6.82;;;3.20;;
17596;SDS011;8917;50.942;6.946;2022-08-05T02:01:10;5.85;;;3.15;;
17596;SDS011;8917;50.942;6.946;2022-08-05T02:03:39;5.45;;;3.28;;
17596;SDS011;8917;50.942;6.946;2022-08-05T02:06:07;6.80;;;3.72;;
17596;SDS011;8917;50.942;6.946;2022-08-05T02:08:34;5.40;;;3.05;;
17596;SDS011;8917;50.942;6.946;2022-08-05T02:11:04;3.20;;;2.90;;
17596;SDS011;8917;50.942;6.946;2022-08-05T02:13:34;4.85;;;3.03;;
17596;SDS011;8917;50.942;6.946;2022-08-05T02:16:05;3.45;;;3.03;;
17596;SDS011;8917;50.942;6.946;2022-08-05T02:18:40;4.55;;;3.63;;
17596;SDS011;8917;50.942;6.946;2022-08-05T02:21:12;5.90;;;3.70;;
17596;SDS011;8917;50.942;6.946;2022-08-05T02:23:40;6.80;;;4.50;;
17596;SDS011;8917;50.942;6.946;2022-08-05T02:26:08;6.20;;;3.80;;
17596;SDS011;8917;50.942;6.946;2022-08-05T02:28:37;13.70;;;5.03;;
17596;SDS011;8917;50.942;6.946;2022-08-05T02:31:06;7.55;;;5.00;;
17596;SDS011;8917;50.942;6.946;2022-08-05T02:33:40;8.00;;;5.10;;
17596;SDS011;8917;50.942;6.946;2022-08-05T02:36:11;9.77;;;4.90;;
17596;SDS011;8917;50.942;6.946;2022-08-05T02:38:40;7.97;;;5.97;;
17596;SDS011;8917;50.942;6.946;2022-08-05T02:41:08;9.85;;;4.95;;
17596;SDS011;8917;50.942;6.946;2022-08-05T02:43:36;9.63;;;5.13;;
17596;SDS011;8917;50.942;6.946;2022-08-05T02:46:03;7.80;;;5.20;;
17596;SDS011;8917;50.942;6.946;2022-08-05T02:48:31;6.13;;;5.07;;
17596;SDS011;8917;50.942;6.946;2022-08-05T02:50:59;9.05;;;5.38;;
17596;SDS011;8917;50.942;6.946;2022-08-05T02:53:28;5.90;;;4.78;;
17596;SDS011;8917;50.942;6.946;2022-08-05T02:55:55;6.78;;;5.40;;
17596;SDS011;8917;50.942;6.946;2022-08-05T02:58:23;7.60;;;5.22;;
17596;SDS011;8917;50.942;6.946;2022-08-05T03:00:51;7.18;;;5.53;;
17596;SDS011;8917;50.942;6.946;2022-08-05T03:03:18;7.70;;;5.25;;
17596;SDS011;8917;50.942;6.946;2022-08-05T03:05:46;7.68;;;5.60;;
17596;SDS011;8917;50.942;6.946;2022-08-05T03:08:14;7.05;;;6.32;;
17596;SDS011;8917;50.942;6.946;2022-08-05T03:10:47;7.07;;;6.32;;
17596;SDS011;8917;50.942;6.946;2022-08-05T03:13:15;7.00;;;6.30;;
17596;SDS011;8917;50.942;6.946;2022-08-05T03:15:43;7.45;;;6.20;;
17596;SDS011;8917;50.942;6.946;2022-08-05T03:18:10;8.93;;;6.40;;
17596;SDS011;8917;50.942;6.946;2022-08-05T03:20:38;6.63;;;6.03;;
17596;SDS011;8917;50.942;6.946;2022-08-05T03:23:06;7.82;;;6.97;;
17596;SDS011;8917;50.942;6.946;2022-08-05T03:25:34;7.68;;;6.85;;
17596;SDS011;8917;50.942;6.946;2022-08-05T03:28:03;7.95;;;7.13;;
17596;SDS011;8917;50.942;6.946;2022-08-05T03:30:31;7.60;;;6.90;;
17596;SDS011;8917;50.942;6.946;2022-08-05T03:32:59;8.30;;;7.03;;
17596;SDS011;8917;50.942;6.946;2022-08-05T03:35:26;9.25;;;7.72;;
17596;SDS011;8917;50.942;6.946;2022-08-05T03:37:55;8.27;;;7.47;;
17596;SDS011;8917;50.942;6.946;2022-08-05T03:40:24;7.95;;;6.90;;
17596;SDS011;8917;50.942;6.946;2022-08-05T03:42:51;7.57;;;6.88;;
17596;SDS011;8917;50.942;6.946;2022-08-05T03:45:20;7.70;;;6.85;;
17596;SDS011;8917;50.942;6.946;2022-08-05T03:47:47;9.68;;;7.10;;
17596;SDS011;8917;50.942;6.946;2022-08-05T03:50:14;7.20;;;6.47;;
17596;SDS011;8917;50.942;6.946;2022-08-05T03:52:43;7.25;;;6.55;;
17596;SDS011;8917;50.942;6.946;2022-08-05T03:55:16;7.70;;;6.90;;
17596;SDS011;8917;50.942;6.946;2022-08-05T03:57:46;8.95;;;7.28;;
17596;SDS011;8917;50.942;6.946;2022-08-05T04:00:15;9.13;;;7.68;;
17596;SDS011;8917;50.942;6.946;2022-08-05T04:02:47;8.25;;;7.25;;
17596;SDS011;8917;50.942;6.946;2022-08-05T04:05:14;9.68;;;7.93;;
17596;SDS011;8917;50.942;6.946;2022-08-05T04:07:42;10.27;;;8.35;;
17596;SDS011;8917;50.942;6.946;2022-08-05T04:10:10;8.80;;;7.90;;
17596;SDS011;8917;50.942;6.946;2022-08-05T04:12:37;12.02;;;8.15;;
17596;SDS011;8917;50.942;6.946;2022-08-05T04:15:05;9.57;;;8.25;;
17596;SDS011;8917;50.942;6.946;2022-08-05T04:17:33;8.73;;;7.82;;
17596;SDS011;8917;50.942;6.946;2022-08-05T04:20:02;9.13;;;8.23;;
17596;SDS011;8917;50.942;6.946;2022-08-05T04:22:29;8.55;;;7.68;;
17596;SDS011;8917;50.942;6.946;2022-08-05T04:24:57;10.80;;;8.20;;
17596;SDS011;8917;50.942;6.946;2022-08-05T04:27:24;11.57;;;8.95;;
17596;SDS011;8917;50.942;6.946;2022-08-05T04:29:51;9.23;;;8.27;;
17596;SDS011;8917;50.942;6.946;2022-08-05T04:32:18;13.05;;;8.70;;
17596;SDS011;8917;50.942;6.946;2022-08-05T04:34:45;9.30;;;8.10;;
17596;SDS011;8917;50.942;6.946;2022-08-05T04:37:14;9.98;;;8.93;;
17596;SDS011;8917;50.942;6.946;2022-08-05T04:39:41;10.68;;;8.45;;
17596;SDS011;8917;50.942;6.946;2022-08-05T04:42:08;10.07;;;9.05;;
17596;SDS011;8917;50.942;6.946;2022-08-05T04:44:35;12.00;;;9.98;;
17596;SDS011;8917;50.942;6.946;2022-08-05T04:47:03;10.35;;;9.30;;
17596;SDS011;8917;50.942;6.946;2022-08-05T04:49:30;9.60;;;8.68;;
17596;SDS011;8917;50.942;6.946;2022-08-05T04:51:58;11.73;;;8.98;;
17596;SDS011;8917;50.942;6.946;2022-08-05T04:54:27;10.43;;;9.32;;
17596;SDS011;8917;50.942;6.946;2022-08-05T04:56:54;10.90;;;9.25;;
17596;SDS011;8917;50.942;6.946;2022-08-05T04:59:21;11.15;;;9.82;;
17596;SDS011;8917;50.942;6.946;2022-08-05T05:01:48;13.90;;;9.57;;
17596;SDS011;8917;50.942;6.946;2022-08-05T05:04:16;12.07;;;10.02;;
17596;SDS011;8917;50.942;6.946;2022-08-05T05:06:43;11.70;;;9.75;;
17596;SDS011;8917;50.942;6.946;2022-08-05T05:09:10;13.93;;;10.88;;
17596;SDS011;8917;50.942;6.946;2022-08-05T05:11:39;12.20;;;11.00;;
17596;SDS011;8917;50.942;6.946;2022-08-05T05:14:06;12.95;;;11.80;;
17596;SDS011;8917;50.942;6.946;2022-08-05T05:16:33;14.43;;;12.60;;
17596;SDS011;8917;50.942;6.946;2022-08-05T05:19:00;13.90;;;12.50;;
17596;SDS011;8917;50.942;6.946;2022-08-05T05:21:27;15.65;;;14.00;;
17596;SDS011;8917;50.942;6.946;2022-08-05T05:23:55;17.58;;;15.77;;
17596;SDS011;8917;50.942;6.946;2022-08-05T05:26:23;17.80;;;15.90;;
17596;SDS011;8917;50.942;6.946;2022-08-05T05:28:52;20.52;;;17.80;;
17596;SDS011;8917;50.942;6.946;2022-08-05T05:31:19;18.63;;;16.70;;
17596;SDS011;8917;50.942;6.946;2022-08-05T05:33:46;19.90;;;17.85;;
17596;SDS011;8917;50.942;6.946;2022-08-05T05:36:13;20.15;;;18.05;;
17596;SDS011;8917;50.942;6.946;2022-08-05T05:38:41;22.92;;;19.80;;
17596;SDS011;8917;50.942;6.946;2022-08-05T05:41:08;19.83;;;17.65;;
17596;SDS011;8917;50.942;6.946;2022-08-05T05:43:35;20.80;;;18.75;;
17596;SDS011;8917;50.942;6.946;2022-08-05T05:46:04;21.45;;;18.75;;
17596;SDS011;8917;50.942;6.946;2022-08-05T05:48:31;21.83;;;19.55;;
17596;SDS011;8917;50.942;6.946;2022-08-05T05:50:58;24.17;;;21.67;;
17596;SDS011;8917;50.942;6.946;2022-08-05T05:53:25;25.15;;;22.40;;
17596;SDS011;8917;50.942;6.946;2022-08-05T05:55:53;28.42;;;23.10;;
17596;SDS011;8917;50.942;6.946;2022-08-05T05:58:20;25.98;;;23.02;;
17596;SDS011;8917;50.942;6.946;2022-08-05T06:00:47;24.13;;;21.35;;
17596;SDS011;8917;50.942;6.946;2022-08-05T06:03:15;25.92;;;23.15;;
17596;SDS011;8917;50.942;6.946;2022-08-05T06:05:43;26.10;;;22.65;;
17596;SDS011;8917;50.942;6.946;2022-08-05T06:08:10;25.35;;;22.08;;
17596;SDS011;8917;50.942;6.946;2022-08-05T06:10:37;29.48;;;23.70;;
17596;SDS011;8917;50.942;6.946;2022-08-05T06:13:04;27.63;;;23.30;;
17596;SDS011;8917;50.942;6.946;2022-08-05T06:15:32;34.92;;;27.80;;
17596;SDS011;8917;50.942;6.946;2022-08-05T06:17:59;31.77;;;27.15;;
17596;SDS011;8917;50.942;6.946;2022-08-05T06:20:28;31.60;;;24.27;;
17596;SDS011;8917;50.942;6.946;2022-08-05T06:22:55;30.67;;;25.30;;
17596;SDS011;8917;50.942;6.946;2022-08-05T06:25:24;33.70;;;28.05;;
17596;SDS011;8917;50.942;6.946;2022-08-05T06:27:51;35.03;;;26.88;;
17596;SDS011;8917;50.942;6.946;2022-08-05T06:30:18;35.70;;;27.40;;
17596;SDS011;8917;50.942;6.946;2022-08-05T06:32:45;39.55;;;30.45;;
17596;SDS011;8917;50.942;6.946;2022-08-05T06:35:12;35.80;;;28.05;;
17596;SDS011;8917;50.942;6.946;2022-08-05T06:37:41;34.75;;;27.73;;
17596;SDS011;8917;50.942;6.946;2022-08-05T06:40:09;34.08;;;28.65;;
17596;SDS011;8917;50.942;6.946;2022-08-05T06:42:36;42.58;;;32.15;;
17596;SDS011;8917;50.942;6.946;2022-08-05T06:45:04;45.58;;;34.17;;
17596;SDS011;8917;50.942;6.946;2022-08-05T06:47:31;43.90;;;33.35;;
17596;SDS011;8917;50.942;6.946;2022-08-05T06:50:01;43.00;;;31.73;;
17596;SDS011;8917;50.942;6.946;2022-08-05T06:52:29;43.45;;;32.55;;
17596;SDS011;8917;50.942;6.946;2022-08-05T06:54:57;38.47;;;30.27;;
17596;SDS011;8917;50.942;6.946;2022-08-05T06:57:24;42.50;;;31.60;;
17596;SDS011;8917;50.942;6.946;2022-08-05T06:59:52;39.10;;;30.77;;
17596;SDS011;8917;50.942;6.946;2022-08-05T07:02:19;38.40;;;30.38;;
17596;SDS011;8917;50.942;6.946;2022-08-05T07:04:46;47.15;;;34.03;;
17596;SDS011;8917;50.942;6.946;2022-08-05T07:07:13;44.75;;;32.97;;
17596;SDS011;8917;50.942;6.946;2022-08-05T07:09:40;43.55;;;31.58;;
17596;SDS011;8917;50.942;6.946;2022-08-05T07:12:09;46.45;;;32.55;;
17596;SDS011;8917;50.942;6.946;2022-08-05T07:14:57;45.08;;;33.25;;
17596;SDS011;8917;50.942;6.946;2022-08-05T07:17:41;40.95;;;31.02;;
17596;SDS011;8917;50.942;6.946;2022-08-05T07:20:09;38.63;;;27.90;;
17596;SDS011;8917;50.942;6.946;2022-08-05T07:22:36;34.78;;;26.17;;
17596;SDS011;8917;50.942;6.946;2022-08-05T07:25:04;33.75;;;26.45;;
17596;SDS011;8917;50.942;6.946;2022-08-05T07:27:33;31.30;;;26.05;;
17596;SDS011;8917;50.942;6.946;2022-08-05T07:30:01;33.97;;;27.50;;
17596;SDS011;8917;50.942;6.946;2022-08-05T07:32:28;38.88;;;29.88;;
17596;SDS011;8917;50.942;6.946;2022-08-05T07:34:55;38.08;;;28.92;;
17596;SDS011;8917;50.942;6.946;2022-08-05T07:37:23;39.28;;;30.10;;
17596;SDS011;8917;50.942;6.946;2022-08-05T07:39:50;41.60;;;32.75;;
17596;SDS011;8917;50.942;6.946;2022-08-05T07:42:17;41.10;;;31.15;;
17596;SDS011;8917;50.942;6.946;2022-08-05T07:44:46;42.80;;;31.50;;
17596;SDS011;8917;50.942;6.946;2022-08-05T07:47:13;39.63;;;30.77;;
17596;SDS011;8917;50.942;6.946;2022-08-05T07:49:42;46.20;;;33.45;;
17596;SDS011;8917;50.942;6.946;2022-08-05T07:52:10;42.90;;;33.85;;
17596;SDS011;8917;50.942;6.946;2022-08-05T07:54:37;44.50;;;35.10;;
17596;SDS011;8917;50.942;6.946;2022-08-05T07:57:04;52.70;;;37.15;;
17596;SDS011;8917;50.942;6.946;2022-08-05T07:59:31;47.67;;;39.03;;
17596;SDS011;8917;50.942;6.946;2022-08-05T08:02:00;47.67;;;38.92;;
17596;SDS011;8917;50.942;6.946;2022-08-05T08:04:27;44.55;;;37.10;;
17596;SDS011;8917;50.942;6.946;2022-08-05T08:06:57;59.22;;;38.88;;
17596;SDS011;8917;50.942;6.946;2022-08-05T08:09:25;45.20;;;34.05;;
17596;SDS011;8917;50.942;6.946;2022-08-05T08:11:52;36.85;;;31.08;;
17596;SDS011;8917;50.942;6.946;2022-08-05T08:14:19;37.63;;;29.73;;
17596;SDS011;8917;50.942;6.946;2022-08-05T08:16:46;37.83;;;31.02;;
17596;SDS011;8917;50.942;6.946;2022-08-05T08:19:15;38.22;;;32.55;;
17596;SDS011;8917;50.942;6.946;2022-08-05T08:21:43;40.72;;;34.63;;
17596;SDS011;8917;50.942;6.946;2022-08-05T08:24:10;42.25;;;35.97;;
17596;SDS011;8917;50.942;6.946;2022-08-05T08:26:38;41.20;;;34.05;;
17596;SDS011;8917;50.942;6.946;2022-08-05T08:29:05;39.42;;;33.83;;
17596;SDS011;8917;50.942;6.946;2022-08-05T08:31:32;38.10;;;33.08;;
17596;SDS011;8917;50.942;6.946;2022-08-05T08:33:59;41.33;;;35.17;;
17596;SDS011;8917;50.942;6.946;2022-08-05T08:36:28;37.97;;;33.53;;
17596;SDS011;8917;50.942;6.946;2022-08-05T08:38:55;36.17;;;32.28;;
17596;SDS011;8917;50.942;6.946;2022-08-05T08:41:22;37.67;;;33.70;;
17596;SDS011;8917;50.942;6.946;2022-08-05T08:43:51;37.97;;;33.90;;
17596;SDS011;8917;50.942;6.946;2022-08-05T08:46:19;36.10;;;32.15;;
17596;SDS011;8917;50.942;6.946;2022-08-05T08:48:47;34.00;;;30.35;;
17596;SDS011;8917;50.942;6.946;2022-08-05T08:51:15;35.75;;;30.65;;
17596;SDS011;8917;50.942;6.946;2022-08-05T08:53:45;38.80;;;32.70;;
17596;SDS011;8917;50.942;6.946;2022-08-05T08:56:14;37.05;;;31.58;;
17596;SDS011;8917;50.942;6.946;2022-08-05T08:58:41;38.35;;;32.42;;
17596;SDS011;8917;50.942;6.946;2022-08-05T09:01:09;37.42;;;31.20;;
17596;SDS011;8917;50.942;6.946;2022-08-05T09:03:36;33.90;;;30.23;;
17596;SDS011;8917;50.942;6.946;2022-08-05T09:06:07;34.88;;;28.42;;
17596;SDS011;8917;50.942;6.946;2022-08-05T09:08:34;30.88;;;26.58;;
17596;SDS011;8917;50.942;6.946;2022-08-05T09:11:04;28.98;;;24.20;;
17596;SDS011;8917;50.942;6.946;2022-08-05T09:13:32;25.58;;;22.58;;
17596;SDS011;8917;50.942;6.946;2022-08-05T09:15:59;25.90;;;19.80;;
17596;SDS011;8917;50.942;6.946;2022-08-05T09:18:26;23.77;;;19.13;;
17596;SDS011;8917;50.942;6.946;2022-08-05T09:20:54;23.05;;;17.98;;
17596;SDS011;8917;50.942;6.946;2022-08-05T09:23:21;18.48;;;15.63;;
17596;SDS011;8917;50.942;6.946;2022-08-05T09:25:49;17.45;;;15.23;;
17596;SDS011;8917;50.942;6.946;2022-08-05T09:28:19;16.80;;;12.40;;
17596;SDS011;8917;50.942;6.946;2022-08-05T09:30:53;14.73;;;12.50;;
17596;SDS011;8917;50.942;6.946;2022-08-05T09:33:22;15.43;;;12.05;;
17596;SDS011;8917;50.942;6.946;2022-08-05T09:35:54;14.75;;;12.15;;
17596;SDS011;8917;50.942;6.946;2022-08-05T09:38:22;12.80;;;10.38;;
17596;SDS011;8917;50.942;6.946;2022-08-05T09:40:49;12.25;;;10.70;;
17596;SDS011;8917;50.942;6.946;2022-08-05T09:43:29;11.32;;;10.23;;
17596;SDS011;8917;50.942;6.946;2022-08-05T09:45:57;10.65;;;9.57;;
17596;SDS011;8917;50.942;6.946;2022-08-05T09:48:25;10.10;;;9.10;;
17596;SDS011;8917;50.942;6.946;2022-08-05T09:50:53;10.85;;;9.25;;
17596;SDS011;8917;50.942;6.946;2022-08-05T09:53:21;12.40;;;9.63;;
17596;SDS011;8917;50.942;6.946;2022-08-05T09:55:55;11.57;;;9.65;;
17596;SDS011;8917;50.942;6.946;2022-08-05T09:58:22;10.38;;;8.63;;
17596;SDS011;8917;50.942;6.946;2022-08-05T10:00:52;12.95;;;9.48;;
17596;SDS011;8917;50.942;6.946;2022-08-05T10:03:19;9.82;;;8.90;;
17596;SDS011;8917;50.942;6.946;2022-08-05T10:05:58;12.88;;;9.27;;
17596;SDS011;8917;50.942;6.946;2022-08-05T10:08:26;10.77;;;9.38;;
17596;SDS011;8917;50.942;6.946;2022-08-05T10:10:54;11.18;;;9.25;;
17596;SDS011;8917;50.942;6.946;2022-08-05T10:13:25;9.30;;;8.40;;
17596;SDS011;8917;50.942;6.946;2022-08-05T10:15:54;8.35;;;7.57;;
17596;SDS011;8917;50.942;6.946;2022-08-05T10:18:22;12.50;;;8.63;;
17596;SDS011;8917;50.942;6.946;2022-08-05T10:20:53;9.63;;;8.73;;
17596;SDS011;8917;50.942;6.946;2022-08-05T10:23:22;10.95;;;8.23;;
17596;SDS011;8917;50.942;6.946;2022-08-05T10:25:50;9.07;;;7.43;;
17596;SDS011;8917;50.942;6.946;2022-08-05T10:28:17;10.80;;;7.55;;
17596;SDS011;8917;50.942;6.946;2022-08-05T10:30:45;8.75;;;7.20;;
17596;SDS011;8917;50.942;6.946;2022-08-05T10:33:20;8.30;;;6.50;;
17596;SDS011;8917;50.942;6.946;2022-08-05T10:36:00;8.10;;;6.72;;
17596;SDS011;8917;50.942;6.946;2022-08-05T10:38:29;8.77;;;7.18;;
17596;SDS011;8917;50.942;6.946;2022-08-05T10:41:01;6.65;;;6.05;;
17596;SDS011;8917;50.942;6.946;2022-08-05T10:43:36;9.73;;;7.88;;
17596;SDS011;8917;50.942;6.946;2022-08-05T10:46:07;10.15;;;6.40;;
17596;SDS011;8917;50.942;6.946;2022-08-05T10:48:36;8.05;;;6.70;;
17596;SDS011;8917;50.942;6.946;2022-08-05T10:51:05;10.77;;;6.05;;
17596;SDS011;8917;50.942;6.946;2022-08-05T10:53:34;7.43;;;5.90;;
17596;SDS011;8917;50.942;6.946;2022-08-05T10:56:02;7.45;;;5.50;;
17596;SDS011;8917;50.942;6.946;2022-08-05T10:58:29;7.78;;;5.07;;
17596;SDS011;8917;50.942;6.946;2022-08-05T11:00:57;6.97;;;4.88;;
17596;SDS011;8917;50.942;6.946;2022-08-05T11:03:27;9.63;;;5.60;;
17596;SDS011;8917;50.942;6.946;2022-08-05T11:06:06;8.05;;;5.22;;
17596;SDS011;8917;50.942;6.946;2022-08-05T11:08:33;6.78;;;4.55;;
17596;SDS011;8917;50.942;6.946;2022-08-05T11:13:47;7.68;;;4.53;;
17596;SDS011;8917;50.942;6.946;2022-08-05T11:16:21;5.63;;;4.30;;
17596;SDS011;8917;50.942;6.946;2022-08-05T11:21:32;8.98;;;3.80;;
17596;SDS011;8917;50.942;6.946;2022-08-05T11:24:06;7.95;;;4.10;;
17596;SDS011;8917;50.942;6.946;2022-08-05T11:26:33;9.23;;;3.80;;
17596;SDS011;8917;50.942;6.946;2022-08-05T11:29:02;8.57;;;4.25;;
17596;SDS011;8917;50.942;6.946;2022-08-05T11:31:30;6.90;;;4.10;;
17596;SDS011;8917;50.942;6.946;2022-08-05T11:33:58;7.28;;;4.63;;
17596;SDS011;8917;50.942;6.946;2022-08-05T11:39:13;7.78;;;4.45;;
17596;SDS011;8917;50.942;6.946;2022-08-05T11:41:48;5.80;;;4.50;;
17596;SDS011;8917;50.942;6.946;2022-08-05T11:44:16;8.50;;;5.00;;
17596;SDS011;8917;50.942;6.946;2022-08-05T11:46:46;9.63;;;4.80;;
17596;SDS011;8917;50.942;6.946;2022-08-05T11:49:14;6.25;;;3.22;;
17596;SDS011;8917;50.942;6.946;2022-08-05T11:51:41;3.60;;;2.97;;
17596;SDS011;8917;50.942;6.946;2022-08-05T11:54:09;4.85;;;3.50;;
17596;SDS011;8917;50.942;6.946;2022-08-05T11:56:45;4.30;;;2.78;;
17596;SDS011;8917;50.942;6.946;2022-08-05T11:59:14;5.30;;;3.30;;
17596;SDS011;8917;50.942;6.946;2022-08-05T12:01:50;6.45;;;3.45;;
17596;SDS011;8917;50.942;6.946;2022-08-05T12:04:18;5.38;;;3.20;;
17596;SDS011;8917;50.942;6.946;2022-08-05T12:06:45;5.32;;;3.20;;
17596;SDS011;8917;50.942;6.946;2022-08-05T12:09:16;5.47;;;3.10;;
17596;SDS011;8917;50.942;6.946;2022-08-05T12:11:46;4.18;;;3.25;;
17596;SDS011;8917;50.942;6.946;2022-08-05T12:14:13;5.70;;;3.35;;
17596;SDS011;8917;50.942;6.946;2022-08-05T12:16:41;4.28;;;2.92;;
17596;SDS011;8917;50.942;6.946;2022-08-05T12:19:09;3.03;;;2.75;;
17596;SDS011;8917;50.942;6.946;2022-08-05T12:21:41;5.22;;;2.92;;
17596;SDS011;8917;50.942;6.946;2022-08-05T12:24:09;5.38;;;2.65;;
17596;SDS011;8917;50.942;6.946;2022-08-05T12:26:39;6.28;;;2.97;;
17596;SDS011;8917;50.942;6.946;2022-08-05T12:29:09;5.25;;;3.00;;
17596;SDS011;8917;50.942;6.946;2022-08-05T12:31:37;4.75;;;4.03;;
17596;SDS011;8917;50.942;6.946;2022-08-05T12:34:06;3.65;;;2.83;;
17596;SDS011;8917;50.942;6.946;2022-08-05T12:36:34;5.28;;;3.05;;
17596;SDS011;8917;50.942;6.946;2022-08-05T12:39:05;3.88;;;2.60;;
17596;SDS011;8917;50.942;6.946;2022-08-05T12:41:40;4.70;;;3.10;;
17596;SDS011;8917;50.942;6.946;2022-08-05T12:44:10;3.92;;;3.13;;
17596;SDS011;8917;50.942;6.946;2022-08-05T12:46:41;4.90;;;3.13;;
17596;SDS011;8917;50.942;6.946;2022-08-05T12:49:11;3.75;;;3.15;;
17596;SDS011;8917;50.942;6.946;2022-08-05T12:51:43;5.47;;;3.20;;
17596;SDS011;8917;50.942;6.946;2022-08-05T12:54:16;5.90;;;3.50;;
17596;SDS011;8917;50.942;6.946;2022-08-05T12:56:47;4.75;;;3.40;;
17596;SDS011;8917;50.942;6.946;2022-08-05T12:59:17;4.65;;;3.53;;
17596;SDS011;8917;50.942;6.946;2022-08-05T13:01:51;5.75;;;3.67;;
17596;SDS011;8917;50.942;6.946;2022-08-05T13:04:19;5.63;;;3.85;;
17596;SDS011;8917;50.942;6.946;2022-08-05T13:06:47;5.72;;;3.75;;
17596;SDS011;8917;50.942;6.946;2022-08-05T13:09:14;5.07;;;4.28;;
17596;SDS011;8917;50.942;6.946;2022-08-05T13:11:42;6.22;;;4.28;;
17596;SDS011;8917;50.942;6.946;2022-08-05T13:14:18;5.95;;;4.60;;
17596;SDS011;8917;50.942;6.946;2022-08-05T13:16:50;31.90;;;28.95;;
17596;SDS011;8917;50.942;6.946;2022-08-05T13:19:19;6.63;;;4.95;;
17596;SDS011;8917;50.942;6.946;2022-08-05T13:21:46;6.57;;;4.88;;
17596;SDS011;8917;50.942;6.946;2022-08-05T13:24:14;5.80;;;5.40;;
17596;SDS011;8917;50.942;6.946;2022-08-05T13:26:42;6.82;;;4.88;;
17596;SDS011;8917;50.942;6.946;2022-08-05T13:29:09;8.38;;;5.00;;
17596;SDS011;8917;50.942;6.946;2022-08-05T13:31:38;8.20;;;4.68;;
17596;SDS011;8917;50.942;6.946;2022-08-05T13:34:05;5.00;;;4.53;;
17596;SDS011;8917;50.942;6.946;2022-08-05T13:36:33;6.45;;;4.60;;
17596;SDS011;8917;50.942;6.946;2022-08-05T13:39:00;7.85;;;5.80;;
17596;SDS011;8917;50.942;6.946;2022-08-05T13:41:27;5.85;;;4.95;;
17596;SDS011;8917;50.942;6.946;2022-08-05T13:43:55;5.57;;;4.78;;
17596;SDS011;8917;50.942;6.946;2022-08-05T13:46:22;8.60;;;4.93;;
17596;SDS011;8917;50.942;6.946;2022-08-05T13:48:51;7.50;;;5.50;;
17596;SDS011;8917;50.942;6.946;2022-08-05T13:51:24;7.25;;;5.20;;
17596;SDS011;8917;50.942;6.946;2022-08-05T13:53:51;7.88;;;5.32;;
17596;SDS011;8917;50.942;6.946;2022-08-05T13:56:18;6.47;;;5.22;;
17596;SDS011;8917;50.942;6.946;2022-08-05T13:58:46;7.07;;;4.70;;
17596;SDS011;8917;50.942;6.946;2022-08-05T14:01:13;5.03;;;4.47;;
17596;SDS011;8917;50.942;6.946;2022-08-05T14:03:42;5.00;;;4.50;;
17596;SDS011;8917;50.942;6.946;2022-08-05T14:06:31;4.78;;;4.10;;
17596;SDS011;8917;50.942;6.946;2022-08-05T14:08:57;6.88;;;4.18;;
17596;SDS011;8917;50.942;6.946;2022-08-05T14:11:25;4.47;;;4.07;;
17596;SDS011;8917;50.942;6.946;2022-08-05T14:13:52;6.53;;;4.70;;
17596;SDS011;8917;50.942;6.946;2022-08-05T14:16:20;7.57;;;4.60;;
17596;SDS011;8917;50.942;6.946;2022-08-05T14:18:47;4.45;;;3.90;;
17596;SDS011;8917;50.942;6.946;2022-08-05T14:21:14;4.38;;;3.90;;
17596;SDS011;8917;50.942;6.946;2022-08-05T14:23:43;6.20;;;4.10;;
17596;SDS011;8917;50.942;6.946;2022-08-05T14:26:10;6.32;;;3.75;;
17596;SDS011;8917;50.942;6.946;2022-08-05T14:28:38;7.40;;;4.20;;
17596;SDS011;8917;50.942;6.946;2022-08-05T14:31:05;6.50;;;3.80;;
17596;SDS011;8917;50.942;6.946;2022-08-05T14:33:32;4.20;;;3.28;;
17596;SDS011;8917;50.942;6.946;2022-08-05T14:36:00;6.40;;;3.97;;
17596;SDS011;8917;50.942;6.946;2022-08-05T14:38:27;5.72;;;3.72;;
17596;SDS011;8917;50.942;6.946;2022-08-05T14:40:56;4.05;;;3.47;;
17596;SDS011;8917;50.942;6.946;2022-08-05T14:43:23;6.07;;;3.55;;
17596;SDS011;8917;50.942;6.946;2022-08-05T14:45:50;3.97;;;3.33;;
17596;SDS011;8917;50.942;6.946;2022-08-05T14:48:18;2.92;;;2.58;;
17596;SDS011;8917;50.942;6.946;2022-08-05T14:50:45;4.60;;;2.38;;
17596;SDS011;8917;50.942;6.946;2022-08-05T14:53:12;3.17;;;2.03;;
17596;SDS011;8917;50.942;6.946;2022-08-05T14:55:39;2.67;;;1.92;;
17596;SDS011;8917;50.942;6.946;2022-08-05T14:58:08;3.20;;;1.90;;
17596;SDS011;8917;50.942;6.946;2022-08-05T15:00:35;4.10;;;1.92;;
17596;SDS011;8917;50.942;6.946;2022-08-05T15:03:03;2.70;;;1.73;;
17596;SDS011;8917;50.942;6.946;2022-08-05T15:05:31;2.65;;;1.73;;
17596;SDS011;8917;50.942;6.946;2022-08-05T15:07:58;2.03;;;1.52;;